Fort Plain, New York
Current Conditions -  °F | °C
As of 4:55 PM on Saturday 20 Dec 2014 (Local Time) from KNY0 Reporting Station
Overcast Overcast  
Wind Chill: 23°   Ceiling: 2100
Heat Index: 23°   Visibility: 10mi
Dew Point: 16°   Wind: 0mph
Humidity: 74%   Direction: NA
Pressure: 30.25"   Gusts: NA
Location:  42.93°N, 74.62°W
Report Text: KNY0 202155Z AUTO 00000KT 10SM OVC021 M05/M09 A3025 RMK AO2 T10511091
Loading
Personal Weather Stations






























Interactive Weather Map New forecast layout! Learn more

10-Day Weather Forecast

Advertisements
Track Severe Weather on mobile